createdAt,value
2023-02-02T00:02:00.988Z,2.10
2023-02-02T00:05:07.675Z,2.30
2023-02-02T00:08:13.917Z,2.30
2023-02-02T00:11:21.042Z,2.80
2023-02-02T00:14:27.905Z,2.30
2023-02-02T00:17:34.277Z,2.90
2023-02-02T00:23:45.255Z,3.70
2023-02-02T00:26:53.461Z,2.30
2023-02-02T00:29:59.949Z,3.00
2023-02-02T00:36:11.325Z,2.10
2023-02-02T00:39:20.323Z,2.00
2023-02-02T00:42:26.613Z,2.30
2023-02-02T00:48:37.830Z,2.10
2023-02-02T00:51:44.090Z,1.90
2023-02-02T00:54:50.311Z,2.30
2023-02-02T00:57:56.609Z,1.80
2023-02-02T01:04:07.759Z,2.30
2023-02-02T01:07:14.040Z,2.00
2023-02-02T01:10:20.384Z,1.80
2023-02-02T01:16:31.200Z,2.90
2023-02-02T01:22:42.029Z,1.80
2023-02-02T01:25:54.246Z,1.50
2023-02-02T01:29:00.530Z,1.50
2023-02-02T01:35:12.571Z,1.60
2023-02-02T01:38:18.959Z,1.70
2023-02-02T01:45:07.406Z,1.50
2023-02-02T01:48:14.684Z,1.50
2023-02-02T01:51:24.099Z,1.60
2023-02-02T01:54:34.979Z,1.50
2023-02-02T01:57:45.007Z,1.90
2023-02-02T02:00:51.923Z,2.00
2023-02-02T02:03:58.817Z,1.40
2023-02-02T02:07:06.230Z,1.70
2023-02-02T02:10:13.373Z,1.70
2023-02-02T02:13:21.024Z,1.90
2023-02-02T02:16:37.385Z,1.90
2023-02-02T02:20:36.403Z,1.80
2023-02-02T02:24:39.069Z,2.30
2023-02-02T02:28:06.008Z,1.40
2023-02-02T02:31:41.622Z,1.70
2023-02-02T02:38:01.971Z,1.60
2023-02-02T02:41:13.591Z,1.80
2023-02-02T02:44:21.172Z,2.20
2023-02-02T02:47:30.191Z,1.70
2023-02-02T02:50:36.490Z,1.60
2023-02-02T02:57:05.258Z,1.70
2023-02-02T03:00:28.163Z,1.70
2023-02-02T03:03:50.575Z,1.60
2023-02-02T03:07:03.083Z,1.80
2023-02-02T03:10:12.954Z,2.00
2023-02-02T03:13:20.437Z,2.30
2023-02-02T03:16:26.695Z,2.60
2023-02-02T03:19:33.010Z,2.10
2023-02-02T03:25:44.828Z,2.60
2023-02-02T03:28:54.907Z,2.60
2023-02-02T03:32:01.273Z,2.30
2023-02-02T03:38:13.146Z,2.80
2023-02-02T03:41:19.600Z,2.90
2023-02-02T03:44:25.825Z,2.80
2023-02-02T03:47:32.939Z,3.60
2023-02-02T03:50:40.047Z,3.00
2023-02-02T03:53:47.716Z,3.00
2023-02-02T03:56:54.083Z,3.00
2023-02-02T04:00:00.373Z,3.50
2023-02-02T04:06:11.734Z,2.80
2023-02-02T04:09:17.864Z,2.50
2023-02-02T04:12:24.079Z,2.60
2023-02-02T04:15:30.313Z,2.70
2023-02-02T04:21:41.301Z,3.00
2023-02-02T04:24:47.613Z,2.70
2023-02-02T04:30:59.824Z,3.40
2023-02-02T04:34:06.389Z,2.80
2023-02-02T04:37:13.109Z,3.60
2023-02-02T04:40:19.864Z,3.10
2023-02-02T04:43:26.183Z,3.10
2023-02-02T04:49:36.934Z,3.50
2023-02-02T04:52:43.178Z,3.00
2023-02-02T04:55:49.470Z,2.80
2023-02-02T05:02:02.520Z,3.00
2023-02-02T05:05:12.052Z,3.30
2023-02-02T05:08:18.307Z,2.90
2023-02-02T05:11:25.245Z,3.30
2023-02-02T05:14:31.447Z,2.90
2023-02-02T05:17:37.679Z,2.90
2023-02-02T05:23:49.045Z,2.70
2023-02-02T05:26:58.702Z,2.80
2023-02-02T05:30:05.819Z,3.00
2023-02-02T05:33:12.049Z,3.20
2023-02-02T05:36:18.921Z,2.60
2023-02-02T05:39:25.277Z,2.70
2023-02-02T05:42:31.562Z,2.80
2023-02-02T05:48:42.652Z,2.60
2023-02-02T05:57:59.608Z,3.00
2023-02-02T06:04:10.486Z,3.10
2023-02-02T06:07:16.789Z,3.30
2023-02-02T06:13:28.624Z,2.60
2023-02-02T06:16:34.758Z,3.30
2023-02-02T06:19:41.216Z,2.80
2023-02-02T06:22:48.368Z,2.90
2023-02-02T06:25:54.744Z,2.80
2023-02-02T06:32:05.917Z,1.80
2023-02-02T06:35:13.264Z,1.90
2023-02-02T06:38:19.659Z,2.70
2023-02-02T06:44:30.744Z,1.90
2023-02-02T06:47:37.141Z,2.10
2023-02-02T06:50:43.674Z,1.80
2023-02-02T06:53:50.395Z,2.30
2023-02-02T06:56:56.684Z,2.00
2023-02-02T07:03:08.003Z,1.70
2023-02-02T07:06:19.724Z,1.90
2023-02-02T07:09:25.984Z,2.00
2023-02-02T07:12:32.184Z,1.70
2023-02-02T07:15:39.695Z,2.10
2023-02-02T07:18:48.330Z,2.20
2023-02-02T07:21:54.642Z,2.30
2023-02-02T07:28:05.727Z,2.10
2023-02-02T07:31:20.313Z,2.30
2023-02-02T07:34:26.957Z,2.10
2023-02-02T07:37:33.230Z,2.30
2023-02-02T07:40:39.507Z,1.90
2023-02-02T07:46:50.816Z,2.40
2023-02-02T07:49:57.039Z,2.30
2023-02-02T07:53:03.336Z,2.10
2023-02-02T07:59:16.196Z,1.90
2023-02-02T08:02:22.494Z,1.90
2023-02-02T08:08:33.786Z,2.10
2023-02-02T08:11:40.674Z,2.30
2023-02-02T08:14:46.908Z,2.00
2023-02-02T08:17:53.100Z,2.00
2023-02-02T08:21:01.228Z,1.90
2023-02-02T08:24:08.005Z,2.30
2023-02-02T08:27:14.317Z,2.40
2023-02-02T08:33:25.782Z,2.50
2023-02-02T08:39:37.425Z,2.30
2023-02-02T08:42:44.214Z,2.20
2023-02-02T08:46:04.564Z,2.30
2023-02-02T08:49:13.644Z,2.20
2023-02-02T08:52:19.920Z,2.40
2023-02-02T08:55:26.354Z,2.50
2023-02-02T08:58:33.974Z,2.60
2023-02-02T09:01:40.262Z,2.50
2023-02-02T09:07:51.915Z,2.40
2023-02-02T09:10:58.167Z,2.30
2023-02-02T09:14:06.596Z,2.30
2023-02-02T09:17:13.170Z,2.00
2023-02-02T09:23:27.325Z,2.50
2023-02-02T09:26:33.613Z,1.60
2023-02-02T09:32:45.728Z,1.50
2023-02-02T09:35:51.985Z,1.70
2023-02-02T09:38:58.210Z,1.50
2023-02-02T09:42:16.744Z,2.60
2023-02-02T09:45:33.512Z,2.00
2023-02-02T09:48:47.608Z,1.70
2023-02-02T09:51:59.937Z,2.00
2023-02-02T09:55:13.516Z,2.40
2023-02-02T09:58:24.220Z,1.90
2023-02-02T10:01:36.592Z,2.50
2023-02-02T10:04:45.549Z,2.00
2023-02-02T10:07:58.173Z,2.30
2023-02-02T10:11:11.914Z,2.10
2023-02-02T10:14:29.059Z,2.30
2023-02-02T10:17:43.391Z,2.10
2023-02-02T10:20:57.805Z,2.50
2023-02-02T10:24:05.635Z,1.90
2023-02-02T10:27:17.661Z,1.90
2023-02-02T10:30:36.060Z,2.30
2023-02-02T10:33:42.682Z,2.40
2023-02-02T10:37:00.871Z,2.10
2023-02-02T10:40:24.358Z,2.10
2023-02-02T10:43:49.258Z,2.40
2023-02-02T10:46:59.038Z,2.00
2023-02-02T10:50:19.785Z,2.20
2023-02-02T10:53:29.026Z,2.30
2023-02-02T10:56:41.910Z,2.20
2023-02-02T10:59:58.628Z,2.20
2023-02-02T11:03:07.377Z,2.70
2023-02-02T11:06:34.704Z,2.80
2023-02-02T11:09:44.281Z,2.10
2023-02-02T11:12:53.215Z,2.90
2023-02-02T11:16:32.656Z,2.10
2023-02-02T11:19:45.536Z,2.00
2023-02-02T11:23:03.284Z,2.40
2023-02-02T11:26:10.199Z,2.30
2023-02-02T11:29:21.449Z,2.30
2023-02-02T11:32:33.205Z,2.80
2023-02-02T11:35:53.559Z,2.70
2023-02-02T11:39:21.030Z,2.90
2023-02-02T11:42:29.146Z,3.20
2023-02-02T11:45:39.210Z,3.20
2023-02-02T11:48:52.467Z,3.00
2023-02-02T11:52:04.560Z,3.20
2023-02-02T11:55:19.925Z,3.20
2023-02-02T11:58:28.585Z,3.60
2023-02-02T12:01:36.948Z,3.70
2023-02-02T12:04:43.613Z,3.70
2023-02-02T12:07:50.407Z,3.90
2023-02-02T12:11:01.787Z,3.70
2023-02-02T12:14:24.996Z,4.20
2023-02-02T12:17:40.547Z,3.60
2023-02-02T12:20:52.727Z,4.00
2023-02-02T12:24:14.911Z,4.10
2023-02-02T12:27:32.139Z,4.00
2023-02-02T12:30:49.509Z,3.90
2023-02-02T12:34:05.552Z,3.60
2023-02-02T12:37:21.925Z,3.70
2023-02-02T12:40:55.852Z,3.50
2023-02-02T12:44:07.086Z,3.50
2023-02-02T12:47:22.915Z,3.10
2023-02-02T12:50:35.971Z,3.40
2023-02-02T12:54:34.379Z,3.30
2023-02-02T12:57:41.063Z,4.20
2023-02-02T13:01:11.333Z,2.80
2023-02-02T13:08:02.541Z,2.80
2023-02-02T13:11:30.167Z,2.50
2023-02-02T13:14:41.901Z,3.10
2023-02-02T13:17:52.151Z,3.00
2023-02-02T13:21:03.028Z,3.20
2023-02-02T13:24:16.678Z,3.70
2023-02-02T13:27:25.113Z,3.70
2023-02-02T13:30:36.073Z,3.70
2023-02-02T13:33:46.027Z,4.20
2023-02-02T13:36:57.089Z,4.00
2023-02-02T13:40:07.146Z,3.70
2023-02-02T13:43:31.956Z,4.00
2023-02-02T13:46:46.840Z,3.80
2023-02-02T13:50:04.120Z,3.70
2023-02-02T13:53:31.397Z,4.10
2023-02-02T13:56:57.735Z,3.80
2023-02-02T14:00:15.218Z,12.50
2023-02-02T14:03:40.098Z,17.10
2023-02-02T14:06:58.447Z,6.90
2023-02-02T14:10:05.733Z,4.90
2023-02-02T14:13:38.597Z,6.20
2023-02-02T14:16:55.891Z,5.30
2023-02-02T14:20:03.617Z,14.10
2023-02-02T14:23:48.498Z,8.80
2023-02-02T14:26:56.778Z,14.00
2023-02-02T14:30:17.713Z,6.90
2023-02-02T14:33:47.708Z,4.70
2023-02-02T14:37:10.329Z,6.40
2023-02-02T14:40:40.086Z,15.30
2023-02-02T14:43:52.007Z,6.90
2023-02-02T14:46:59.302Z,9.00
2023-02-02T14:50:13.762Z,8.00
2023-02-02T14:53:28.694Z,7.70
2023-02-02T14:56:50.103Z,15.50
2023-02-02T15:00:01.167Z,7.00
2023-02-02T15:03:36.289Z,18.80
2023-02-02T15:06:43.359Z,7.20
2023-02-02T15:09:49.668Z,6.50
2023-02-02T15:16:23.179Z,8.90
2023-02-02T15:19:37.017Z,8.20
2023-02-02T15:22:50.424Z,5.20
2023-02-02T15:26:00.987Z,6.20
2023-02-02T15:29:17.424Z,12.80
2023-02-02T15:32:28.501Z,5.90
2023-02-02T15:35:38.138Z,5.90
2023-02-02T15:38:47.764Z,6.90
2023-02-02T15:42:17.121Z,11.40
2023-02-02T15:45:43.649Z,5.80
2023-02-02T15:49:12.561Z,4.30
2023-02-02T15:52:25.324Z,4.90
2023-02-02T15:55:36.370Z,6.50
2023-02-02T15:58:48.825Z,5.80
2023-02-02T16:02:05.657Z,6.90
2023-02-02T16:05:40.001Z,10.10
2023-02-02T16:08:46.783Z,6.90
2023-02-02T16:11:53.703Z,9.20
2023-02-02T16:15:00.110Z,8.40
2023-02-02T16:18:15.549Z,7.10
2023-02-02T16:21:26.097Z,7.80
2023-02-02T16:24:35.602Z,8.20
2023-02-02T16:27:47.844Z,11.10
2023-02-02T16:30:55.642Z,5.90
2023-02-02T16:34:02.817Z,6.30
2023-02-02T16:37:14.474Z,5.50
2023-02-02T16:40:27.297Z,6.30
2023-02-02T16:43:33.711Z,8.80
2023-02-02T16:49:52.969Z,7.60
2023-02-02T16:53:02.851Z,9.20
2023-02-02T16:56:10.423Z,40.10
2023-02-02T16:59:24.425Z,30.20
2023-02-02T17:02:35.234Z,29.10
2023-02-02T17:05:50.823Z,30.70
2023-02-02T17:08:57.062Z,23.00
2023-02-02T17:12:09.295Z,24.40
2023-02-02T17:15:35.999Z,10.00
2023-02-02T17:18:42.212Z,13.70
2023-02-02T17:24:56.686Z,6.80
2023-02-02T17:28:03.880Z,10.00
2023-02-02T17:31:13.364Z,6.80
2023-02-02T17:34:19.746Z,4.60
2023-02-02T17:37:26.180Z,9.40
2023-02-02T17:40:32.527Z,6.70
2023-02-02T17:46:43.243Z,11.30
2023-02-02T17:49:49.545Z,6.90
2023-02-02T17:52:55.828Z,8.40
2023-02-02T17:59:07.057Z,10.60
2023-02-02T18:02:16.589Z,4.80
2023-02-02T18:05:23.143Z,4.50
2023-02-02T18:08:29.841Z,4.90
2023-02-02T18:11:36.133Z,4.40
2023-02-02T18:14:42.601Z,6.80
2023-02-02T18:17:49.034Z,4.50
2023-02-02T18:20:55.281Z,4.10
2023-02-02T18:24:01.587Z,5.00
2023-02-02T18:30:14.700Z,4.50
2023-02-02T18:33:20.869Z,7.40
2023-02-02T18:36:27.193Z,5.60
2023-02-02T18:42:38.638Z,7.50
2023-02-02T18:48:49.467Z,14.60
2023-02-02T18:51:55.813Z,9.10
2023-02-02T18:58:10.683Z,11.50
2023-02-02T19:01:18.882Z,8.50
2023-02-02T19:04:25.219Z,10.60
2023-02-02T19:11:01.682Z,9.50
2023-02-02T19:14:16.587Z,8.80
2023-02-02T19:17:25.208Z,11.80
2023-02-02T19:20:32.533Z,7.20
2023-02-02T19:23:39.323Z,6.90
2023-02-02T19:26:49.658Z,8.50
2023-02-02T19:30:01.589Z,7.10
2023-02-02T19:33:13.762Z,7.50
2023-02-02T19:36:21.715Z,9.90
2023-02-02T19:39:31.953Z,7.20
2023-02-02T19:42:45.156Z,8.90
2023-02-02T19:45:52.101Z,7.80
2023-02-02T19:49:05.926Z,6.60
2023-02-02T19:52:20.289Z,6.70
2023-02-02T19:55:29.225Z,8.80
2023-02-02T19:58:38.503Z,7.10
2023-02-02T20:01:46.084Z,9.00
2023-02-02T20:05:01.529Z,7.30
2023-02-02T20:08:18.035Z,23.30
2023-02-02T20:11:33.169Z,16.40
2023-02-02T20:14:41.590Z,13.50
2023-02-02T20:17:47.924Z,13.20
2023-02-02T20:24:00.581Z,9.90
2023-02-02T20:27:15.140Z,11.70
2023-02-02T20:30:28.456Z,9.50
2023-02-02T20:33:35.195Z,8.30
2023-02-02T20:36:44.327Z,8.00
2023-02-02T20:39:54.057Z,15.70
2023-02-02T20:43:00.313Z,9.60
2023-02-02T20:46:06.768Z,9.50
2023-02-02T20:49:13.393Z,12.70
2023-02-02T20:52:23.976Z,7.10
2023-02-02T20:55:30.470Z,16.60
2023-02-02T21:01:41.509Z,12.00
2023-02-02T21:04:49.225Z,11.80
2023-02-02T21:07:55.813Z,7.40
2023-02-02T21:11:02.274Z,9.90
2023-02-02T21:14:08.880Z,9.40
2023-02-02T21:17:16.128Z,10.10
2023-02-02T21:20:23.247Z,12.70
2023-02-02T21:23:29.541Z,11.00
2023-02-02T21:29:40.737Z,8.40
2023-02-02T21:32:47.054Z,8.70
2023-02-02T21:39:07.330Z,9.00
2023-02-02T21:42:18.394Z,9.90
2023-02-02T21:45:36.939Z,11.30
2023-02-02T21:48:44.225Z,13.60
2023-02-02T21:51:50.867Z,19.30
2023-02-02T21:54:57.653Z,13.00
2023-02-02T21:58:13.083Z,12.30
2023-02-02T22:01:23.469Z,9.20
2023-02-02T22:04:30.647Z,9.20
2023-02-02T22:07:36.917Z,8.70
2023-02-02T22:10:45.534Z,7.80
2023-02-02T22:13:52.150Z,6.70
2023-02-02T22:17:00.545Z,7.20
2023-02-02T22:20:20.409Z,7.10
2023-02-02T22:23:28.649Z,6.40
2023-02-02T22:26:36.717Z,6.10
2023-02-02T22:29:42.997Z,6.70
2023-02-02T22:32:49.279Z,6.00
2023-02-02T22:39:00.463Z,6.30
2023-02-02T22:45:12.586Z,6.70
2023-02-02T22:48:19.137Z,7.20
2023-02-02T22:51:25.401Z,6.60
2023-02-02T22:54:32.196Z,7.60
2023-02-02T22:57:38.806Z,7.20
2023-02-02T23:00:45.084Z,7.00
2023-02-02T23:06:56.125Z,7.30
2023-02-02T23:13:07.517Z,8.70
2023-02-02T23:16:13.875Z,8.90
2023-02-02T23:22:24.809Z,8.30
2023-02-02T23:28:35.786Z,7.70
2023-02-02T23:31:42.138Z,8.00
2023-02-02T23:37:52.960Z,8.00
2023-02-02T23:41:00.555Z,7.80
2023-02-02T23:44:07.319Z,8.60
2023-02-02T23:47:14.001Z,9.90
2023-02-02T23:50:20.391Z,9.70
